sensor_id;sensor_type;location;lat;lon;timestamp;temperature;humidity
18974;DHT22;9621;48.690;9.466;2022-07-03T00:01:53;11.80;99.90
18974;DHT22;9621;48.690;9.466;2022-07-03T00:04:20;11.80;99.90
18974;DHT22;9621;48.690;9.466;2022-07-03T00:06:49;11.80;99.90
18974;DHT22;9621;48.690;9.466;2022-07-03T00:09:18;11.80;99.90
18974;DHT22;9621;48.690;9.466;2022-07-03T00:11:45;11.80;99.90
18974;DHT22;9621;48.690;9.466;2022-07-03T00:14:12;11.70;99.90
18974;DHT22;9621;48.690;9.466;2022-07-03T00:16:39;11.80;99.90
18974;DHT22;9621;48.690;9.466;2022-07-03T00:19:06;11.70;99.90
18974;DHT22;9621;48.690;9.466;2022-07-03T00:21:35;11.70;99.90
18974;DHT22;9621;48.690;9.466;2022-07-03T00:24:13;11.60;99.90
18974;DHT22;9621;48.690;9.466;2022-07-03T00:26:43;11.60;99.90
18974;DHT22;9621;48.690;9.466;2022-07-03T00:29:12;11.60;99.90
18974;DHT22;9621;48.690;9.466;2022-07-03T00:31:40;11.60;99.90
18974;DHT22;9621;48.690;9.466;2022-07-03T00:34:08;11.50;99.90
18974;DHT22;9621;48.690;9.466;2022-07-03T00:36:38;11.50;99.90
18974;DHT22;9621;48.690;9.466;2022-07-03T00:39:05;11.50;99.90
18974;DHT22;9621;48.690;9.466;2022-07-03T00:41:35;11.50;99.90
18974;DHT22;9621;48.690;9.466;2022-07-03T00:44:03;11.50;99.90
18974;DHT22;9621;48.690;9.466;2022-07-03T00:46:30;11.40;99.90
18974;DHT22;9621;48.690;9.466;2022-07-03T00:48:58;11.40;99.90
18974;DHT22;9621;48.690;9.466;2022-07-03T00:51:26;11.40;99.90
18974;DHT22;9621;48.690;9.466;2022-07-03T00:53:55;11.40;99.90
18974;DHT22;9621;48.690;9.466;2022-07-03T00:56:24;11.30;99.90
18974;DHT22;9621;48.690;9.466;2022-07-03T00:58:55;11.30;99.90
18974;DHT22;9621;48.690;9.466;2022-07-03T01:01:26;11.30;99.90
18974;DHT22;9621;48.690;9.466;2022-07-03T01:04:04;11.20;99.90
18974;DHT22;9621;48.690;9.466;2022-07-03T01:06:37;11.20;99.90
18974;DHT22;9621;48.690;9.466;2022-07-03T01:09:06;11.20;99.90
18974;DHT22;9621;48.690;9.466;2022-07-03T01:11:38;11.20;99.90
18974;DHT22;9621;48.690;9.466;2022-07-03T01:14:15;11.10;99.90
18974;DHT22;9621;48.690;9.466;2022-07-03T01:16:54;11.00;99.90
18974;DHT22;9621;48.690;9.466;2022-07-03T01:19:37;11.00;99.90
18974;DHT22;9621;48.690;9.466;2022-07-03T01:22:26;11.00;99.90
18974;DHT22;9621;48.690;9.466;2022-07-03T01:25:15;11.00;99.90
18974;DHT22;9621;48.690;9.466;2022-07-03T01:27:56;10.90;99.90
18974;DHT22;9621;48.690;9.466;2022-07-03T01:30:25;10.90;99.90
18974;DHT22;9621;48.690;9.466;2022-07-03T01:32:57;10.90;99.90
18974;DHT22;9621;48.690;9.466;2022-07-03T01:35:34;10.90;99.90
18974;DHT22;9621;48.690;9.466;2022-07-03T01:38:03;10.90;99.90
18974;DHT22;9621;48.690;9.466;2022-07-03T01:40:33;10.90;99.90
18974;DHT22;9621;48.690;9.466;2022-07-03T01:43:05;10.80;99.90
18974;DHT22;9621;48.690;9.466;2022-07-03T01:45:35;10.80;99.90
18974;DHT22;9621;48.690;9.466;2022-07-03T01:48:05;10.80;99.90
18974;DHT22;9621;48.690;9.466;2022-07-03T01:50:33;10.70;99.90
18974;DHT22;9621;48.690;9.466;2022-07-03T01:53:03;10.70;99.90
18974;DHT22;9621;48.690;9.466;2022-07-03T01:55:31;10.70;99.90
18974;DHT22;9621;48.690;9.466;2022-07-03T01:57:59;10.70;99.90
18974;DHT22;9621;48.690;9.466;2022-07-03T02:00:28;10.60;99.90
18974;DHT22;9621;48.690;9.466;2022-07-03T02:02:58;10.70;99.90
18974;DHT22;9621;48.690;9.466;2022-07-03T02:05:37;10.60;99.90
18974;DHT22;9621;48.690;9.466;2022-07-03T02:08:27;10.60;99.90
18974;DHT22;9621;48.690;9.466;2022-07-03T02:11:08;10.60;99.90
18974;DHT22;9621;48.690;9.466;2022-07-03T02:13:43;10.60;99.90
18974;DHT22;9621;48.690;9.466;2022-07-03T02:16:16;10.60;99.90
18974;DHT22;9621;48.690;9.466;2022-07-03T02:18:49;10.50;99.90
18974;DHT22;9621;48.690;9.466;2022-07-03T02:21:21;10.50;99.90
18974;DHT22;9621;48.690;9.466;2022-07-03T02:23:55;10.50;99.90
18974;DHT22;9621;48.690;9.466;2022-07-03T02:26:31;10.50;99.90
18974;DHT22;9621;48.690;9.466;2022-07-03T02:29:02;10.40;99.90
18974;DHT22;9621;48.690;9.466;2022-07-03T02:31:34;10.40;99.90
18974;DHT22;9621;48.690;9.466;2022-07-03T02:34:05;10.40;99.90
18974;DHT22;9621;48.690;9.466;2022-07-03T02:36:35;10.40;99.90
18974;DHT22;9621;48.690;9.466;2022-07-03T02:39:02;10.40;99.90
18974;DHT22;9621;48.690;9.466;2022-07-03T02:41:49;10.40;99.90
18974;DHT22;9621;48.690;9.466;2022-07-03T02:44:25;10.40;99.90
18974;DHT22;9621;48.690;9.466;2022-07-03T02:47:00;10.40;99.90
18974;DHT22;9621;48.690;9.466;2022-07-03T02:49:43;10.30;99.90
18974;DHT22;9621;48.690;9.466;2022-07-03T02:52:34;10.30;99.90
18974;DHT22;9621;48.690;9.466;2022-07-03T02:55:08;10.30;99.90
18974;DHT22;9621;48.690;9.466;2022-07-03T02:57:39;10.20;99.90
18974;DHT22;9621;48.690;9.466;2022-07-03T03:00:08;10.20;99.90
18974;DHT22;9621;48.690;9.466;2022-07-03T03:02:52;10.20;99.90
18974;DHT22;9621;48.690;9.466;2022-07-03T03:05:25;10.20;99.90
18974;DHT22;9621;48.690;9.466;2022-07-03T03:08:03;10.20;99.90
18974;DHT22;9621;48.690;9.466;2022-07-03T03:10:35;10.20;99.90
18974;DHT22;9621;48.690;9.466;2022-07-03T03:13:05;10.10;99.90
18974;DHT22;9621;48.690;9.466;2022-07-03T03:15:33;10.20;99.90
18974;DHT22;9621;48.690;9.466;2022-07-03T03:18:04;10.10;99.90
18974;DHT22;9621;48.690;9.466;2022-07-03T03:20:34;10.10;99.90
18974;DHT22;9621;48.690;9.466;2022-07-03T03:23:24;10.10;99.90
18974;DHT22;9621;48.690;9.466;2022-07-03T03:25:52;10.10;99.90
18974;DHT22;9621;48.690;9.466;2022-07-03T03:28:21;10.10;99.90
18974;DHT22;9621;48.690;9.466;2022-07-03T03:30:49;10.10;99.90
18974;DHT22;9621;48.690;9.466;2022-07-03T03:33:18;10.10;99.90
18974;DHT22;9621;48.690;9.466;2022-07-03T03:35:45;10.00;99.90
18974;DHT22;9621;48.690;9.466;2022-07-03T03:38:12;10.00;99.90
18974;DHT22;9621;48.690;9.466;2022-07-03T03:40:39;10.00;99.90
18974;DHT22;9621;48.690;9.466;2022-07-03T03:43:06;10.00;99.90
18974;DHT22;9621;48.690;9.466;2022-07-03T03:45:33;10.00;99.90
18974;DHT22;9621;48.690;9.466;2022-07-03T03:48:01;10.00;99.90
18974;DHT22;9621;48.690;9.466;2022-07-03T03:50:30;10.10;99.90
18974;DHT22;9621;48.690;9.466;2022-07-03T03:52:59;10.10;99.90
18974;DHT22;9621;48.690;9.466;2022-07-03T03:55:26;10.10;99.90
18974;DHT22;9621;48.690;9.466;2022-07-03T03:57:53;10.20;99.90
18974;DHT22;9621;48.690;9.466;2022-07-03T04:00:20;10.30;99.90
18974;DHT22;9621;48.690;9.466;2022-07-03T04:02:47;10.50;99.90
18974;DHT22;9621;48.690;9.466;2022-07-03T04:05:14;10.80;99.90
18974;DHT22;9621;48.690;9.466;2022-07-03T04:07:42;11.20;99.90
18974;DHT22;9621;48.690;9.466;2022-07-03T04:10:09;11.60;99.90
18974;DHT22;9621;48.690;9.466;2022-07-03T04:12:36;11.90;99.90
18974;DHT22;9621;48.690;9.466;2022-07-03T04:15:04;12.30;99.90
18974;DHT22;9621;48.690;9.466;2022-07-03T04:17:31;12.70;99.90
18974;DHT22;9621;48.690;9.466;2022-07-03T04:19:58;13.10;99.90
18974;DHT22;9621;48.690;9.466;2022-07-03T04:22:25;13.50;99.90
18974;DHT22;9621;48.690;9.466;2022-07-03T04:24:53;13.90;99.90
18974;DHT22;9621;48.690;9.466;2022-07-03T04:27:20;14.30;99.90
18974;DHT22;9621;48.690;9.466;2022-07-03T04:29:47;14.70;99.90
18974;DHT22;9621;48.690;9.466;2022-07-03T04:32:14;15.10;99.90
18974;DHT22;9621;48.690;9.466;2022-07-03T04:34:41;15.30;99.90
18974;DHT22;9621;48.690;9.466;2022-07-03T04:37:09;15.70;99.90
18974;DHT22;9621;48.690;9.466;2022-07-03T04:39:36;16.20;99.90
18974;DHT22;9621;48.690;9.466;2022-07-03T04:42:05;16.50;99.90
18974;DHT22;9621;48.690;9.466;2022-07-03T04:44:33;16.90;99.90
18974;DHT22;9621;48.690;9.466;2022-07-03T04:47:00;17.30;99.90
18974;DHT22;9621;48.690;9.466;2022-07-03T04:49:29;17.70;99.90
18974;DHT22;9621;48.690;9.466;2022-07-03T04:51:57;17.90;99.90
18974;DHT22;9621;48.690;9.466;2022-07-03T04:54:24;18.30;99.90
18974;DHT22;9621;48.690;9.466;2022-07-03T04:56:51;18.50;99.90
18974;DHT22;9621;48.690;9.466;2022-07-03T04:59:20;18.70;99.70
18974;DHT22;9621;48.690;9.466;2022-07-03T05:01:48;19.00;98.70
18974;DHT22;9621;48.690;9.466;2022-07-03T05:04:15;19.30;98.80
18974;DHT22;9621;48.690;9.466;2022-07-03T05:06:42;19.50;98.40
18974;DHT22;9621;48.690;9.466;2022-07-03T05:09:10;19.80;98.10
18974;DHT22;9621;48.690;9.466;2022-07-03T05:11:37;20.10;97.70
18974;DHT22;9621;48.690;9.466;2022-07-03T05:14:06;20.40;96.90
18974;DHT22;9621;48.690;9.466;2022-07-03T05:16:36;20.70;96.20
18974;DHT22;9621;48.690;9.466;2022-07-03T05:19:04;21.00;95.40
18974;DHT22;9621;48.690;9.466;2022-07-03T05:21:32;21.20;95.10
18974;DHT22;9621;48.690;9.466;2022-07-03T05:23:59;21.40;94.70
18974;DHT22;9621;48.690;9.466;2022-07-03T05:26:26;21.70;94.20
18974;DHT22;9621;48.690;9.466;2022-07-03T05:28:53;21.90;93.70
18974;DHT22;9621;48.690;9.466;2022-07-03T05:31:20;22.20;93.20
18974;DHT22;9621;48.690;9.466;2022-07-03T05:33:49;22.50;93.20
18974;DHT22;9621;48.690;9.466;2022-07-03T05:36:16;22.70;91.80
18974;DHT22;9621;48.690;9.466;2022-07-03T05:38:43;23.00;92.10
18974;DHT22;9621;48.690;9.466;2022-07-03T05:41:27;23.30;91.40
18974;DHT22;9621;48.690;9.466;2022-07-03T05:43:54;23.60;91.00
18974;DHT22;9621;48.690;9.466;2022-07-03T05:46:23;23.80;90.30
18974;DHT22;9621;48.690;9.466;2022-07-03T05:48:54;24.10;89.80
18974;DHT22;9621;48.690;9.466;2022-07-03T05:51:21;24.20;88.00
18974;DHT22;9621;48.690;9.466;2022-07-03T05:53:48;24.60;88.80
18974;DHT22;9621;48.690;9.466;2022-07-03T05:56:15;24.70;86.70
18974;DHT22;9621;48.690;9.466;2022-07-03T05:58:42;24.90;85.80
18974;DHT22;9621;48.690;9.466;2022-07-03T06:01:09;25.20;85.10
18974;DHT22;9621;48.690;9.466;2022-07-03T06:03:36;25.40;85.00
18974;DHT22;9621;48.690;9.466;2022-07-03T06:06:04;25.70;83.90
18974;DHT22;9621;48.690;9.466;2022-07-03T06:08:31;26.00;81.70
18974;DHT22;9621;48.690;9.466;2022-07-03T06:10:58;26.20;81.80
18974;DHT22;9621;48.690;9.466;2022-07-03T06:13:25;26.40;81.20
18974;DHT22;9621;48.690;9.466;2022-07-03T06:15:52;26.60;79.80
18974;DHT22;9621;48.690;9.466;2022-07-03T06:18:19;26.90;80.60
18974;DHT22;9621;48.690;9.466;2022-07-03T06:20:47;26.90;79.10
18974;DHT22;9621;48.690;9.466;2022-07-03T06:23:18;27.30;77.60
18974;DHT22;9621;48.690;9.466;2022-07-03T06:25:45;27.70;77.30
18974;DHT22;9621;48.690;9.466;2022-07-03T06:28:12;27.80;75.30
18974;DHT22;9621;48.690;9.466;2022-07-03T06:30:39;28.00;75.50
18974;DHT22;9621;48.690;9.466;2022-07-03T06:33:07;28.20;75.20
18974;DHT22;9621;48.690;9.466;2022-07-03T06:35:34;28.40;73.60
18974;DHT22;9621;48.690;9.466;2022-07-03T06:38:01;28.50;72.00
18974;DHT22;9621;48.690;9.466;2022-07-03T06:40:30;28.90;72.70
18974;DHT22;9621;48.690;9.466;2022-07-03T06:42:58;28.70;70.20
18974;DHT22;9621;48.690;9.466;2022-07-03T06:45:25;28.70;71.10
18974;DHT22;9621;48.690;9.466;2022-07-03T06:47:52;28.50;68.50
18974;DHT22;9621;48.690;9.466;2022-07-03T06:50:20;28.90;70.30
18974;DHT22;9621;48.690;9.466;2022-07-03T06:52:47;28.30;69.90
18974;DHT22;9621;48.690;9.466;2022-07-03T06:55:14;28.60;68.60
18974;DHT22;9621;48.690;9.466;2022-07-03T06:57:42;28.70;68.70
18974;DHT22;9621;48.690;9.466;2022-07-03T07:00:11;28.70;68.60
18974;DHT22;9621;48.690;9.466;2022-07-03T07:02:38;28.90;68.30
18974;DHT22;9621;48.690;9.466;2022-07-03T07:05:06;28.90;67.90
18974;DHT22;9621;48.690;9.466;2022-07-03T07:07:33;29.00;67.50
18974;DHT22;9621;48.690;9.466;2022-07-03T07:10:00;29.20;67.40
18974;DHT22;9621;48.690;9.466;2022-07-03T07:12:27;29.30;68.70
18974;DHT22;9621;48.690;9.466;2022-07-03T07:14:56;29.50;66.40
18974;DHT22;9621;48.690;9.466;2022-07-03T07:17:23;29.60;65.00
18974;DHT22;9621;48.690;9.466;2022-07-03T07:19:50;29.60;66.00
18974;DHT22;9621;48.690;9.466;2022-07-03T07:22:17;29.60;65.70
18974;DHT22;9621;48.690;9.466;2022-07-03T07:24:44;29.70;64.10
18974;DHT22;9621;48.690;9.466;2022-07-03T07:27:12;29.80;63.40
18974;DHT22;9621;48.690;9.466;2022-07-03T07:29:39;29.90;63.60
18974;DHT22;9621;48.690;9.466;2022-07-03T07:32:08;30.00;64.80
18974;DHT22;9621;48.690;9.466;2022-07-03T07:34:35;30.10;64.40
18974;DHT22;9621;48.690;9.466;2022-07-03T07:37:02;30.50;62.90
18974;DHT22;9621;48.690;9.466;2022-07-03T07:39:29;30.50;63.90
18974;DHT22;9621;48.690;9.466;2022-07-03T07:41:57;31.00;62.40
18974;DHT22;9621;48.690;9.466;2022-07-03T07:44:24;30.80;61.60
18974;DHT22;9621;48.690;9.466;2022-07-03T07:46:51;30.90;59.50
18974;DHT22;9621;48.690;9.466;2022-07-03T07:49:19;30.90;59.00
18974;DHT22;9621;48.690;9.466;2022-07-03T07:51:46;30.90;58.90
18974;DHT22;9621;48.690;9.466;2022-07-03T07:54:14;31.00;59.40
18974;DHT22;9621;48.690;9.466;2022-07-03T07:56:41;31.00;59.00
18974;DHT22;9621;48.690;9.466;2022-07-03T07:59:09;31.10;57.90
18974;DHT22;9621;48.690;9.466;2022-07-03T08:01:35;31.20;58.20
18974;DHT22;9621;48.690;9.466;2022-07-03T08:04:21;31.20;57.60
18974;DHT22;9621;48.690;9.466;2022-07-03T08:07:05;31.30;56.50
18974;DHT22;9621;48.690;9.466;2022-07-03T08:09:32;31.30;56.50
18974;DHT22;9621;48.690;9.466;2022-07-03T08:11:59;31.30;56.20
18974;DHT22;9621;48.690;9.466;2022-07-03T08:14:26;31.20;55.20
18974;DHT22;9621;48.690;9.466;2022-07-03T08:16:53;31.20;54.60
18974;DHT22;9621;48.690;9.466;2022-07-03T08:19:22;31.10;54.80
18974;DHT22;9621;48.690;9.466;2022-07-03T08:21:49;31.00;54.70
18974;DHT22;9621;48.690;9.466;2022-07-03T08:24:16;31.20;55.20
18974;DHT22;9621;48.690;9.466;2022-07-03T08:26:43;31.00;55.30
18974;DHT22;9621;48.690;9.466;2022-07-03T08:29:10;30.90;56.40
18974;DHT22;9621;48.690;9.466;2022-07-03T08:31:37;31.00;54.80
18974;DHT22;9621;48.690;9.466;2022-07-03T08:34:04;31.10;54.50
18974;DHT22;9621;48.690;9.466;2022-07-03T08:36:33;31.20;54.30
18974;DHT22;9621;48.690;9.466;2022-07-03T08:39:00;31.30;53.10
18974;DHT22;9621;48.690;9.466;2022-07-03T08:41:28;31.40;53.60
18974;DHT22;9621;48.690;9.466;2022-07-03T08:43:57;31.40;53.00
18974;DHT22;9621;48.690;9.466;2022-07-03T08:46:26;31.50;52.90
18974;DHT22;9621;48.690;9.466;2022-07-03T08:48:54;31.50;52.50
18974;DHT22;9621;48.690;9.466;2022-07-03T08:51:22;31.50;52.30
18974;DHT22;9621;48.690;9.466;2022-07-03T08:53:53;31.60;52.00
18974;DHT22;9621;48.690;9.466;2022-07-03T08:56:20;31.70;51.20
18974;DHT22;9621;48.690;9.466;2022-07-03T08:58:48;31.80;51.70
18974;DHT22;9621;48.690;9.466;2022-07-03T09:01:16;32.00;52.20
18974;DHT22;9621;48.690;9.466;2022-07-03T09:03:45;32.10;49.80
18974;DHT22;9621;48.690;9.466;2022-07-03T09:06:13;32.20;50.50
18974;DHT22;9621;48.690;9.466;2022-07-03T09:08:40;32.30;50.40
18974;DHT22;9621;48.690;9.466;2022-07-03T09:11:09;32.30;50.30
18974;DHT22;9621;48.690;9.466;2022-07-03T09:13:36;32.50;48.50
18974;DHT22;9621;48.690;9.466;2022-07-03T09:16:04;32.50;48.80
18974;DHT22;9621;48.690;9.466;2022-07-03T09:18:40;32.60;48.90
18974;DHT22;9621;48.690;9.466;2022-07-03T09:21:08;32.70;47.10
18974;DHT22;9621;48.690;9.466;2022-07-03T09:23:37;32.80;48.70
18974;DHT22;9621;48.690;9.466;2022-07-03T09:26:04;32.90;48.80
18974;DHT22;9621;48.690;9.466;2022-07-03T09:28:51;32.90;48.60
18974;DHT22;9621;48.690;9.466;2022-07-03T09:31:19;33.00;45.60
18974;DHT22;9621;48.690;9.466;2022-07-03T09:33:57;33.00;47.40
18974;DHT22;9621;48.690;9.466;2022-07-03T09:36:39;33.00;44.50
18974;DHT22;9621;48.690;9.466;2022-07-03T09:39:23;33.00;45.20
18974;DHT22;9621;48.690;9.466;2022-07-03T09:41:56;33.00;45.10
18974;DHT22;9621;48.690;9.466;2022-07-03T09:44:32;33.00;45.60
18974;DHT22;9621;48.690;9.466;2022-07-03T09:47:09;33.00;44.60
18974;DHT22;9621;48.690;9.466;2022-07-03T09:49:47;33.00;46.00
18974;DHT22;9621;48.690;9.466;2022-07-03T09:52:33;33.00;44.70
18974;DHT22;9621;48.690;9.466;2022-07-03T09:55:12;33.00;41.50
18974;DHT22;9621;48.690;9.466;2022-07-03T09:57:40;32.90;45.50
18974;DHT22;9621;48.690;9.466;2022-07-03T10:00:17;32.90;46.20
18974;DHT22;9621;48.690;9.466;2022-07-03T10:02:54;32.80;43.10
18974;DHT22;9621;48.690;9.466;2022-07-03T10:05:23;32.80;44.90
18974;DHT22;9621;48.690;9.466;2022-07-03T10:07:52;32.70;45.90
18974;DHT22;9621;48.690;9.466;2022-07-03T10:10:20;32.70;46.20
18974;DHT22;9621;48.690;9.466;2022-07-03T10:12:49;32.60;45.80
18974;DHT22;9621;48.690;9.466;2022-07-03T10:15:19;32.50;45.30
18974;DHT22;9621;48.690;9.466;2022-07-03T10:17:50;32.50;45.30
18974;DHT22;9621;48.690;9.466;2022-07-03T10:20:24;32.40;45.60
18974;DHT22;9621;48.690;9.466;2022-07-03T10:22:52;32.40;44.40
18974;DHT22;9621;48.690;9.466;2022-07-03T10:25:20;32.40;46.10
18974;DHT22;9621;48.690;9.466;2022-07-03T10:27:47;32.50;46.90
18974;DHT22;9621;48.690;9.466;2022-07-03T10:30:15;32.50;47.90
18974;DHT22;9621;48.690;9.466;2022-07-03T10:32:46;32.50;46.30
18974;DHT22;9621;48.690;9.466;2022-07-03T10:35:16;32.70;43.30
18974;DHT22;9621;48.690;9.466;2022-07-03T10:37:54;32.80;44.00
18974;DHT22;9621;48.690;9.466;2022-07-03T10:40:30;32.80;43.00
18974;DHT22;9621;48.690;9.466;2022-07-03T10:43:24;32.90;41.60
18974;DHT22;9621;48.690;9.466;2022-07-03T10:46:13;33.00;44.50
18974;DHT22;9621;48.690;9.466;2022-07-03T10:48:59;33.10;45.00
18974;DHT22;9621;48.690;9.466;2022-07-03T10:51:27;33.20;42.70
18974;DHT22;9621;48.690;9.466;2022-07-03T10:54:15;33.30;46.30
18974;DHT22;9621;48.690;9.466;2022-07-03T10:57:07;33.40;38.70
18974;DHT22;9621;48.690;9.466;2022-07-03T11:00:01;33.40;38.80
18974;DHT22;9621;48.690;9.466;2022-07-03T11:02:33;33.30;38.60
18974;DHT22;9621;48.690;9.466;2022-07-03T11:05:10;33.20;39.00
18974;DHT22;9621;48.690;9.466;2022-07-03T11:08:04;33.10;38.60
18974;DHT22;9621;48.690;9.466;2022-07-03T11:10:33;33.00;41.20
18974;DHT22;9621;48.690;9.466;2022-07-03T11:13:12;33.00;43.80
18974;DHT22;9621;48.690;9.466;2022-07-03T11:15:43;33.10;45.10
18974;DHT22;9621;48.690;9.466;2022-07-03T11:18:24;33.20;43.00
18974;DHT22;9621;48.690;9.466;2022-07-03T11:21:19;33.30;42.30
18974;DHT22;9621;48.690;9.466;2022-07-03T11:27:22;33.40;42.40
18974;DHT22;9621;48.690;9.466;2022-07-03T11:30:00;33.60;42.00
18974;DHT22;9621;48.690;9.466;2022-07-03T11:32:50;33.70;41.20
18974;DHT22;9621;48.690;9.466;2022-07-03T11:35:45;33.70;41.60
18974;DHT22;9621;48.690;9.466;2022-07-03T11:38:20;33.80;42.20
18974;DHT22;9621;48.690;9.466;2022-07-03T11:40:50;33.90;43.10
18974;DHT22;9621;48.690;9.466;2022-07-03T11:43:18;34.10;44.00
18974;DHT22;9621;48.690;9.466;2022-07-03T11:45:48;34.30;44.00
18974;DHT22;9621;48.690;9.466;2022-07-03T11:48:17;34.40;42.30
18974;DHT22;9621;48.690;9.466;2022-07-03T11:50:46;34.60;42.00
18974;DHT22;9621;48.690;9.466;2022-07-03T11:53:25;34.80;42.70
18974;DHT22;9621;48.690;9.466;2022-07-03T11:55:55;34.90;40.60
18974;DHT22;9621;48.690;9.466;2022-07-03T11:58:23;35.00;41.80
18974;DHT22;9621;48.690;9.466;2022-07-03T12:00:51;34.90;39.90
18974;DHT22;9621;48.690;9.466;2022-07-03T12:03:24;34.90;39.20
18974;DHT22;9621;48.690;9.466;2022-07-03T12:05:58;34.70;37.20
18974;DHT22;9621;48.690;9.466;2022-07-03T12:08:28;34.60;39.00
18974;DHT22;9621;48.690;9.466;2022-07-03T12:10:57;34.50;40.20
18974;DHT22;9621;48.690;9.466;2022-07-03T12:13:24;34.50;41.40
18974;DHT22;9621;48.690;9.466;2022-07-03T12:15:53;34.50;41.50
18974;DHT22;9621;48.690;9.466;2022-07-03T12:18:20;34.60;41.90
18974;DHT22;9621;48.690;9.466;2022-07-03T12:20:47;34.60;40.30
18974;DHT22;9621;48.690;9.466;2022-07-03T12:23:15;34.70;40.40
18974;DHT22;9621;48.690;9.466;2022-07-03T12:25:44;34.70;40.60
18974;DHT22;9621;48.690;9.466;2022-07-03T12:28:12;34.80;41.50
18974;DHT22;9621;48.690;9.466;2022-07-03T12:30:39;34.90;41.10
18974;DHT22;9621;48.690;9.466;2022-07-03T12:33:06;35.00;40.30
18974;DHT22;9621;48.690;9.466;2022-07-03T12:35:34;35.10;40.20
18974;DHT22;9621;48.690;9.466;2022-07-03T12:38:01;35.10;40.40
18974;DHT22;9621;48.690;9.466;2022-07-03T12:40:28;35.20;39.80
18974;DHT22;9621;48.690;9.466;2022-07-03T12:42:57;35.30;40.40
18974;DHT22;9621;48.690;9.466;2022-07-03T12:45:25;35.50;40.00
18974;DHT22;9621;48.690;9.466;2022-07-03T12:48:00;35.50;39.50
18974;DHT22;9621;48.690;9.466;2022-07-03T12:50:43;35.60;37.80
18974;DHT22;9621;48.690;9.466;2022-07-03T12:53:10;35.60;37.60
18974;DHT22;9621;48.690;9.466;2022-07-03T12:55:44;35.70;39.00
18974;DHT22;9621;48.690;9.466;2022-07-03T12:58:15;35.70;37.90
18974;DHT22;9621;48.690;9.466;2022-07-03T13:00:59;35.80;37.90
18974;DHT22;9621;48.690;9.466;2022-07-03T13:03:29;34.50;37.00
18974;DHT22;9621;48.690;9.466;2022-07-03T13:05:56;36.00;38.00
18974;DHT22;9621;48.690;9.466;2022-07-03T13:08:23;36.00;35.90
18974;DHT22;9621;48.690;9.466;2022-07-03T13:10:57;35.90;37.30
18974;DHT22;9621;48.690;9.466;2022-07-03T13:13:26;35.90;36.90
18974;DHT22;9621;48.690;9.466;2022-07-03T13:15:53;35.90;37.10
18974;DHT22;9621;48.690;9.466;2022-07-03T13:18:20;36.00;37.60
18974;DHT22;9621;48.690;9.466;2022-07-03T13:20:47;36.50;38.80
18974;DHT22;9621;48.690;9.466;2022-07-03T13:23:16;36.00;36.50
18974;DHT22;9621;48.690;9.466;2022-07-03T13:25:46;36.00;35.70
18974;DHT22;9621;48.690;9.466;2022-07-03T13:28:14;36.00;37.00
18974;DHT22;9621;48.690;9.466;2022-07-03T13:30:43;35.90;36.50
18974;DHT22;9621;48.690;9.466;2022-07-03T13:33:10;35.90;35.10
18974;DHT22;9621;48.690;9.466;2022-07-03T13:35:37;35.90;35.20
18974;DHT22;9621;48.690;9.466;2022-07-03T13:38:04;36.00;35.20
18974;DHT22;9621;48.690;9.466;2022-07-03T13:40:31;35.90;34.90
18974;DHT22;9621;48.690;9.466;2022-07-03T13:43:00;35.90;34.60
18974;DHT22;9621;48.690;9.466;2022-07-03T13:45:27;35.80;34.50
18974;DHT22;9621;48.690;9.466;2022-07-03T13:47:57;35.80;34.20
18974;DHT22;9621;48.690;9.466;2022-07-03T13:50:24;35.80;33.40
18974;DHT22;9621;48.690;9.466;2022-07-03T13:52:53;35.80;34.70
18974;DHT22;9621;48.690;9.466;2022-07-03T13:55:20;35.90;35.40
18974;DHT22;9621;48.690;9.466;2022-07-03T13:57:47;35.90;36.00
18974;DHT22;9621;48.690;9.466;2022-07-03T14:00:15;36.10;35.70
18974;DHT22;9621;48.690;9.466;2022-07-03T14:02:42;36.10;33.60
18974;DHT22;9621;48.690;9.466;2022-07-03T14:05:11;36.20;34.60
18974;DHT22;9621;48.690;9.466;2022-07-03T14:07:38;36.20;34.10
18974;DHT22;9621;48.690;9.466;2022-07-03T14:10:06;36.20;33.70
18974;DHT22;9621;48.690;9.466;2022-07-03T14:12:33;36.10;33.40
18974;DHT22;9621;48.690;9.466;2022-07-03T14:15:00;36.10;33.90
18974;DHT22;9621;48.690;9.466;2022-07-03T14:17:28;36.00;33.90
18974;DHT22;9621;48.690;9.466;2022-07-03T14:19:55;36.00;32.70
18974;DHT22;9621;48.690;9.466;2022-07-03T14:22:24;35.90;32.90
18974;DHT22;9621;48.690;9.466;2022-07-03T14:24:52;35.90;34.80
18974;DHT22;9621;48.690;9.466;2022-07-03T14:27:19;35.90;35.10
18974;DHT22;9621;48.690;9.466;2022-07-03T14:30:05;35.90;34.10
18974;DHT22;9621;48.690;9.466;2022-07-03T14:32:50;36.00;34.20
18974;DHT22;9621;48.690;9.466;2022-07-03T14:35:17;36.10;33.90
18974;DHT22;9621;48.690;9.466;2022-07-03T14:37:46;36.20;33.60
18974;DHT22;9621;48.690;9.466;2022-07-03T14:40:14;36.20;31.60
18974;DHT22;9621;48.690;9.466;2022-07-03T14:42:41;36.20;32.40
18974;DHT22;9621;48.690;9.466;2022-07-03T14:45:08;36.40;33.50
18974;DHT22;9621;48.690;9.466;2022-07-03T14:47:36;36.20;33.00
18974;DHT22;9621;48.690;9.466;2022-07-03T14:50:03;36.20;32.00
18974;DHT22;9621;48.690;9.466;2022-07-03T14:52:30;36.10;31.10
18974;DHT22;9621;48.690;9.466;2022-07-03T14:54:58;36.10;31.60
18974;DHT22;9621;48.690;9.466;2022-07-03T14:57:31;36.10;33.30
18974;DHT22;9621;48.690;9.466;2022-07-03T15:00:05;36.00;31.40
18974;DHT22;9621;48.690;9.466;2022-07-03T15:02:39;36.00;32.60
18974;DHT22;9621;48.690;9.466;2022-07-03T15:05:10;35.90;32.10
18974;DHT22;9621;48.690;9.466;2022-07-03T15:07:40;35.90;32.30
18974;DHT22;9621;48.690;9.466;2022-07-03T15:10:11;35.80;32.70
18974;DHT22;9621;48.690;9.466;2022-07-03T15:12:42;35.80;32.50
18974;DHT22;9621;48.690;9.466;2022-07-03T15:15:10;35.80;32.80
18974;DHT22;9621;48.690;9.466;2022-07-03T15:17:38;35.70;32.10
18974;DHT22;9621;48.690;9.466;2022-07-03T15:20:08;35.70;31.20
18974;DHT22;9621;48.690;9.466;2022-07-03T15:22:39;35.60;31.40
18974;DHT22;9621;48.690;9.466;2022-07-03T15:25:10;35.40;31.30
18974;DHT22;9621;48.690;9.466;2022-07-03T15:27:38;35.40;32.10
18974;DHT22;9621;48.690;9.466;2022-07-03T15:30:07;35.20;32.40
18974;DHT22;9621;48.690;9.466;2022-07-03T15:32:35;35.10;32.60
18974;DHT22;9621;48.690;9.466;2022-07-03T15:35:03;35.00;32.50
18974;DHT22;9621;48.690;9.466;2022-07-03T15:37:41;34.80;32.30
18974;DHT22;9621;48.690;9.466;2022-07-03T15:40:16;34.80;32.90
18974;DHT22;9621;48.690;9.466;2022-07-03T15:43:00;34.60;33.30
18974;DHT22;9621;48.690;9.466;2022-07-03T15:45:36;34.50;33.30
18974;DHT22;9621;48.690;9.466;2022-07-03T15:48:15;34.40;33.60
18974;DHT22;9621;48.690;9.466;2022-07-03T15:50:53;34.40;33.60
18974;DHT22;9621;48.690;9.466;2022-07-03T15:53:22;34.30;33.90
18974;DHT22;9621;48.690;9.466;2022-07-03T15:55:54;34.20;34.30
18974;DHT22;9621;48.690;9.466;2022-07-03T15:58:28;34.20;35.20
18974;DHT22;9621;48.690;9.466;2022-07-03T16:00:58;34.20;35.00
18974;DHT22;9621;48.690;9.466;2022-07-03T16:03:53;34.10;34.70
18974;DHT22;9621;48.690;9.466;2022-07-03T16:06:21;34.00;34.90
18974;DHT22;9621;48.690;9.466;2022-07-03T16:08:48;33.80;36.10
18974;DHT22;9621;48.690;9.466;2022-07-03T16:11:19;33.60;36.20